Terminal Aerodrome Forecast
Issued by NWS Wilmington, NC

Home | Current Version | Previous Version | Text Only | Print | Product List | Glossary On
Versions: 1 2 3 4 5 6 7 8 9 10 11 12 13 14 15 16 17 18 19 20 21 22 23 24 25 26 27 28 29 30
000
FTUS42 KILM 021739
TAFFLO
TAF
KFLO 021739Z 0218/0318 20010KT P6SM VCSH SCT020 BKN250
     FM022200 20010KT P6SM VCSH SCT040 OVC250
     FM030000 19008KT P6SM SCT050 OVC250
      TEMPO 0305/0309 P6SM TS SCT025 BKN050CB
     FM031200 23010KT P6SM VCTS SCT020 SCT035CB BKN250
      TEMPO 0312/0316 P6SM -TSRA BKN025 BKN050CB=

USA.gov is the U.S. government's official web portal to all federal, state and local government web resources and services.